• Join FlightAware (Why Join?)
  • Login
  • US Flag 
01:07AM EDT


 

Airport Tracker/Info


-or-


 

Live Flight TrackerFlight Track Log ✈ POE397 ✈ 30-Aug-2013 ✈ CYTZ - KMDW

Flight Track Log - Related Links

Times and Time Zones

All times are in EDT time to prevent confusion due to time zone crossing. See the POE397 flight status page for this flight to view local times or setup timezone preferences in your user account.

Time Position Orientation Groundspeed Altitude Reporting Facility
EDT Latitude Longitude Course Direction KTS MPH feet Rate Location/Type
11:45AM 43.6000 -79.4000 256° West 140 161 1,900  Level Toronto Center
11:46AM 43.5833 -79.3167 105° East 200 230 3,800 1,020 Climbing Toronto Center
11:47AM 43.5333 -79.2667 144° Southeast 250 288 4,000 1,200 Climbing Toronto Center
11:48AM 43.4667 -79.2833 190° South 230 265 6,200 1,500 Climbing Toronto Center
11:49AM 43.4333 -79.3500 235° Southwest 240 276 7,000 360 Climbing Toronto Center
11:50AM 43.4204 -80.5235 256° West  Level Estimated
11:50AM 43.4000 -79.4500 245° Southwest 250 288 7,000  Level Toronto Center
11:51AM 43.3667 -79.5167 235° Southwest 250 288 7,000 120 Level Toronto Center
11:52AM 43.3333 -79.6167 245° Southwest 260 299 7,300 420 Climbing Toronto Center
11:53AM 43.3167 -79.7000 255° West 260 299 7,900 300 Climbing Toronto Center
11:54AM 43.2667 -79.8000 236° Southwest 260 299 8,000  Climbing Toronto Center
11:55AM 43.2500 -79.8833 255° West 260 299 8,000  Level Toronto Center
11:56AM 43.2167 -79.9833 245° Southwest 260 299 8,000 360 Level Toronto Center
11:57AM 43.1667 -80.0500 224° Southwest 260 299 8,800 1,200 Climbing Toronto Center
11:58AM 43.1333 -80.1333 241° Southwest 260 299 10,500 1,740 Climbing Toronto Center
11:59AM 43.0833 -80.2000 224° Southwest 250 288 12,300 1,620 Climbing Toronto Center
12:00PM 43.0500 -80.2667 236° Southwest 250 288 13,800 1,500 Climbing Toronto Center
12:01PM 43.0000 -80.3667 236° Southwest 250 288 15,300 1,320 Climbing Toronto Center
12:02PM 42.9667 -80.4333 236° Southwest 250 288 16,500 1,260 Climbing Toronto Center
12:03PM 42.9167 -80.5000 224° Southwest 250 288 17,900 1,260 Climbing Toronto Center
12:04PM 42.8667 -80.5667 224° Southwest 250 288 19,100 1,080 Climbing Toronto Center
12:05PM 42.8478 -80.6483 253° West 253 291 19,800 960 Climbing Cleveland Center
12:06PM 42.8061 -80.7219 232° Southwest 253 291 20,800 960 Climbing Cleveland Center
12:07PM 42.7622 -80.7953 231° Southwest 258 297 21,800 600 Climbing Cleveland Center
12:08PM 42.7161 -80.8742 232° Southwest 258 297 22,000 60 Climbing Cleveland Center
12:09PM 42.6806 -80.9731 244° Southwest 278 320 22,000 540 Level Cleveland Center
12:10PM 42.6489 -81.0744 247° West 284 327 23,100 960 Climbing Cleveland Center
12:11PM 42.6233 -81.1672 250° West 284 327 24,000 420 Climbing Cleveland Center
12:12PM 42.5917 -81.2600 245° Southwest 279 321 24,000  Level Cleveland Center
12:13PM 42.5597 -81.3639 247° West 285 328 24,000  Level Cleveland Center
12:14PM 42.5297 -81.4567 246° West 297 342 24,000  Level Cleveland Center
12:15PM 42.4978 -81.5631 248° West 307 353 24,000  Level Cleveland Center
12:16PM 42.4633 -81.6694 246° West 313 360 24,000  Level Cleveland Center
12:17PM 42.4311 -81.7814 249° West 313 360 24,000  Level Cleveland Center
12:18PM 42.3964 -81.8906 247° West 313 360 24,000  Level Cleveland Center
12:19PM 42.3619 -81.9967 246° West 313 360 24,000  Level Cleveland Center
12:20PM 42.3272 -82.1081 247° West 313 360 24,000  Level Cleveland Center
12:21PM 42.2881 -82.2250 246° West 313 360 24,000  Level Cleveland Center
12:22PM 42.2531 -82.3336 247° West 313 360 24,000  Level Cleveland Center
12:23PM 42.2181 -82.4419 246° West 313 360 24,000  Level Cleveland Center
12:24PM 42.1828 -82.5531 247° West 313 360 24,000  Level Cleveland Center
12:25PM 42.1517 -82.6586 248° West 313 360 24,000  Level Cleveland Center
12:26PM 42.1081 -82.7692 242° Southwest 319 367 24,000  Level Cleveland Center
12:27PM 42.0500 -82.8622 230° Southwest 319 367 24,000  Level Cleveland Center
12:28PM 41.9936 -82.9608 232° Southwest 330 380 24,000  Level Cleveland Center
12:29PM 41.9497 -83.0681 241° Southwest 335 386 24,000  Level Cleveland Center
12:30PM 41.9200 -83.1814 251° West 330 380 24,000  Level Cleveland Center
12:31PM 41.8883 -83.2944 249° West 330 380 24,000  Level Cleveland Center
12:32PM 41.8564 -83.4017 248° West 324 373 24,000  Level Cleveland Center
12:33PM 41.8203 -83.5144 247° West 324 373 24,000  Level Cleveland Center
12:34PM 41.7883 -83.6244 249° West 324 373 24,000  Level Cleveland Center
12:35PM 41.7561 -83.7314 248° West 324 373 24,000  Level Cleveland Center
12:36PM 41.7239 -83.8439 249° West 324 373 24,000  Level Cleveland Center
12:37PM 41.6914 -83.9536 248° West 324 373 24,000  Level Cleveland Center
12:38PM 41.6569 -84.0631 247° West 324 373 24,000  Level Cleveland Center
12:39PM 41.6244 -84.1722 248° West 324 373 24,000  Level Cleveland Center
12:39PM 41.6092 -84.2289 250° West 320 368 24,000  Level Chicago Center
12:40PM 41.5694 -84.3608 248° West 320 368 24,000  Level Chicago Center
12:41PM 41.5350 -84.4700 247° West 320 368 24,000  Level Chicago Center
12:42PM 41.5008 -84.5822 248° West 325 374 24,000  Level Chicago Center
12:43PM 41.4817 -84.6950 257° West 319 367 24,000  Level Chicago Center
12:45PM 41.4875 -84.8108 274° West 311 358 24,000  Level Chicago Center
12:46PM 41.4917 -84.9267 273° West 315 362 24,000  Level Chicago Center
12:47PM 41.4953 -85.0656 272° West 312 359 24,000  Level Chicago Center
12:48PM 41.4992 -85.1831 273° West 314 361 24,000  Level Chicago Center
12:49PM 41.5036 -85.3008 273° West 315 362 24,000 -660 Level Chicago Center
12:50PM 41.5058 -85.4261 271° West 329 379 22,700 -1,440 Descending Chicago Center
12:51PM 41.5108 -85.5608 273° West 353 406 21,100 -1,560 Descending Chicago Center
12:52PM 41.5147 -85.6875 272° West 341 392 19,500 -1,500 Descending Chicago Center
12:53PM 41.5189 -85.8178 272° West 346 398 18,000 -1,500 Descending Chicago Center
12:54PM 41.5225 -85.9475 272° West 349 402 16,400 -1,740 Descending Chicago Center
12:55PM 41.5244 -86.1017 271° West 347 399 14,500 -1,620 Descending Chicago Center
12:56PM 41.5236 -86.2233 270° West 334 384 13,100 -1,380 Descending Chicago Center
12:57PM 41.5222 -86.3339 269° West 300 345 11,700 -1,020 Descending Chicago Center
12:58PM 41.5228 -86.4406 270° West 289 333 11,000 -360 Descending Chicago Center
12:59PM 41.5211 -86.5519 269° West 299 344 11,000  Level Chicago Center
01:00PM 41.5206 -86.6642 270° West 302 348 11,000 -840 Level Chicago Center
01:01PM 41.5211 -86.7900 270° West 303 349 9,300 -1,500 Descending Chicago Center
01:02PM 41.5164 -86.8911 266° West 278 320 7,900 -1,200 Descending Chicago Center
01:03PM 41.5164 -86.9856 270° West 256 295 6,900 -1,020 Descending Chicago Center
01:04PM 41.5172 -87.0997 271° West 256 295 5,900 -540 Descending Chicago Center
01:05PM 41.5397 -87.1892 289° West 258 297 5,900 -300 Level Chicago Center
01:06PM 41.5697 -87.2761 295° West 260 299 5,300 -780 Descending Chicago Center
01:07PM 41.5961 -87.3619 292° West 255 293 4,300 -720 Descending Chicago Center
01:08PM 41.6203 -87.4467 291° West 251 289 3,900 -240 Descending Chicago Center
01:09PM 41.6500 -87.5472 292° West 247 284 3,900 -480 Level Chicago Center
01:10PM 41.6906 -87.6189 307° West 251 289 3,000 -960 Descending Chicago Center
01:11PM 41.7333 -87.6806 313° West 240 276 1,900 -720 Descending Chicago Center
01:12PM 41.7769 -87.6792 North 211 243 1,600 -300 Descending Chicago Center
01:13PM 41.8097 -87.7189 318° Northwest 171 197 1,300 -300 Descending Chicago Center
01:15PM 41.7897 -87.7506 230° Southwest 154 177 1,000 -300 Descending Chicago Center
01:16PM 41.7833 -87.7500 334° Northwest  Level FlightAware Approximate